Huvudsida
METAR-TAF:

METAR-TAF

Flygplatser :

Jyväskylä flygplats

Jyväskylä, Finland

latitud: 62-24N, longitud: 025-41E, höjd: 141 m

Aktuellt väderrapport

Denna rapport gjordes för 19 minuter sedan, klockan 04:50 UTC
Vind 10 kt från väst, varierande mellan syd/sydväst och väst/nordväst
Temperatur 5°C
Fuktighet 93%
Tryck 1028 hPa
Sikt 10 km eller mer
Spridda moln på en höjd av 1000 ft

METAR: EFJY 170450Z AUTO 27010KT 210V300 9999 SCT010 05/04 Q1028

Tid: 07:09 (05:09 UTC)

Väderprognos

Denna rapport gjordes för 2 timmar och 41 minuter sedan, klockan 02:28 UTC
Prognos gäller från 17 kl. 03 UTC till 18 kl. 03 UTC
Vind 8 kt från väst
Sikt 10 km eller mer
Få moln på en höjd av 1200 ft
Spridda moln på en höjd av 5900 ft
Brutna moln på en höjd av 6600 ft

TAF: EFJY 170228Z 1703/1803 27008KT 9999 FEW012 SCT059 BKN066

Aktuella väderrapporter och prognoser från 4000 flygplatser (METAR- och TAF-rapporter).

De tillgängliga stationerna syns som gula och röda prickar på kartan.

För musen över prickarna för att se namnen på stationerna.

Klicka sedan för att få väderrapporter och prognoser.

För att ändra kartan: Klicka på de gröna knapparna med ett svart kors på för att zooma in; den gröna knappen med ett streck på för att zooma ut; eller på de gröna pilarna för angränsande kartor.


METAR-TAF: